VQPRVNKT

Guest
Details From VQPR - PARO
To VNKT - Kathmandu Tribhuvan Intl
Flight Number -
Tags decoded
Created
Modified
Stats Distance 252 nm / 467 km
Max Altitude 0 ft / 0 m
Waypoints 7
Social Downloads 9
Likes 0
Share VATSIM

Download

Looking for another format? Having issues loading an existing format? Contact us
Advertisement - Login to hide

Notes

Requested: VQPR PRO G348 KTM R325 LNC VNKT Unmatched points: R325

Route

VQPR PRO G348 KTM VNKT

ID Type Via Altitude Latitude Longitude Leg Dist Tot Dist Heading (true) Name
O VQPR APT - 0 ft / 0 m 27.40319˚ 89.42461˚ - 0 nm - PARO
PRO VOR - 0 ft / 0 m 27.30037˚ 89.50513˚ 7 nm 7 nm 145° / 145° PARO VOR-DME
SUBSU FIX G348 (AWY-LO) 0 ft / 0 m 26.98203˚ 88.86383˚ 39 nm 46 nm 241° / 241° -
BBD VOR G348 (AWY-LO) 0 ft / 0 m 26.68761˚ 88.32600˚ 33 nm 80 nm 239° / 238° BAGDOGRA VOR-DME
MECHI FIX G348 (AWY-LO) 0 ft / 0 m 26.76814˚ 88.18200˚ 9 nm 89 nm 302° / 302° -
KTM VOR G348 (AWY-LO) 0 ft / 0 m 27.67472˚ 85.34917˚ 160 nm 250 nm 290° / 289° KATHMANDU VOR-DME
O VNKT APT - 0 ft / 0 m 27.69658˚ 85.35910˚ 1 nm 251 nm 22° / 22° Kathmandu Tribhuvan Intl

Altitude Profile

Advertisement - Login to hide

Weather


0- 5 10 15 20 25 30 35+ Temperature / ° C

Clouds and Precipitation
Forecast for 2018-05-22 12:00 UTC. Updated an hour ago

Ground ~20,000 ft ~40,000 ft Winds

VQPR

Details ICAO VQPR (PBH)
Name PARO
Region Bhutan
Timezone Asia/Thimphu (UTC+6.0)
Stats Elevation 7,332 ft / 2,235 m (AMSL)
Location 27.403190° 89.424605°
Runways 1
Magnetic Variation 0.142° E

METAR

VQPR 221100Z 14008KT 9999 SCT030 BKN080 25/09 Q1015

Decode

TAF

Not found

Departure Runways

ID Width Length Bearing (true) Bearing (mag) Surface Threshold Offset Overrun Length
15 95 ft / 29 m 6,462 ft / 1,970 m 150.65° 150.51° Asphalt 0 ft / 0 m 390 ft / 119 m
33 95 ft / 29 m 6,462 ft / 1,970 m 330.65° 330.51° Asphalt 0 ft / 0 m 217 ft / 66 m

VNKT

Details ICAO VNKT (KTM)
Name Kathmandu Tribhuvan Intl
Region Nepal
Timezone Asia/Kathmandu (UTC+5.8)
Stats Elevation 4,390 ft / 1,338 m (AMSL)
Location 27.696583° 85.359100°
Runways 1
Magnetic Variation 0.514° E

METAR

VNKT 221220Z 28007KT 7000 FEW015 FEW025CB SCT030 BKN100 24/20 Q1013 NOSIG CB TO NE

Decode

TAF

TAF VNKT 221100Z 2212/2312 28005KT 7000 FEW015 SCT025 BKN100 PROB40 2212/2218 VRB12KT 4000 -TSRA FEW025CB OVC090 BECMG 2214/2215 21003KT 6000 FEW015 SCT100 BECMG 2300/2302 00000KT 3000 FEW010 SCT025 PROB40 2301/2303 2000 BR BECMG 2304/2305 14005KT 6000 FEW015 BECMG 2307/2309 26008KT 8000 FEW020 SCT100

Decode

Destination Runways

ID Width Length Bearing (true) Bearing (mag) Surface Threshold Offset Overrun Length
02 148 ft / 45 m 10,017 ft / 3,053 m 21.50° 20.99° Asphalt 0 ft / 0 m 0 ft / 0 m
20 148 ft / 45 m 10,017 ft / 3,053 m 201.51° 201.00° Asphalt 400 ft / 122 m 0 ft / 0 m

Popular Alternatives